Time;durP1;ratioP1;P1;durP2;ratioP2;P2;SDS_P1;SDS_P2;PMS_P1;PMS_P2;Temp;Humidity;BMP_temperature;BMP_pressure;BME280_temperature;BME280_humidity;BME280_pressure;Samples;Min_cycle;Max_cycle;Signal;HPM_P1;HPM_P2
2022/10/21 06:11:42;;;;;;;7.10;4.50;;;14.20;1.00;;;;;;6173550;23;20479;-85
2022/10/21 06:14:25;;;;;;;10.30;4.50;;;14.20;1.00;;;;;;6183963;23;20880;-85
2022/10/21 06:17:43;;;;;;;;;;;;;;;;;;;;;
2022/10/21 06:20:20;;;;;;;9.97;4.43;;;14.20;1.00;;;;;;6182985;23;20478;-86
2022/10/21 06:23:11;;;;;;;10.30;4.83;;;14.30;1.00;;;;;;6187115;23;20391;-85
2022/10/21 06:26:05;;;;;;;7.73;5.70;;;14.30;1.00;;;;;;6174481;23;20510;-85
2022/10/21 06:32:10;;;;;;;5.83;4.77;;;14.30;1.00;;;;;;6167908;23;20628;-84
2022/10/21 06:38:04;;;;;;;7.67;4.17;;;14.30;1.00;;;;;;6181173;23;20435;-84
2022/10/21 06:40:57;;;;;;;9.47;4.77;;;14.30;1.00;;;;;;6191223;23;20459;-85
2022/10/21 06:53:38;;;;;;;7.20;3.77;;;14.50;1.00;;;;;;6179926;23;20391;-85
2022/10/21 07:02:26;;;;;;;;;;;;;;;;;;;;;
2022/10/21 07:05:25;;;;;;;;;;;;;;;;;;;;;
2022/10/21 07:08:40;;;;;;;5.57;3.97;;;14.70;1.00;;;;;;6192755;23;20446;-84
2022/10/21 07:14:22;;;;;;;8.20;4.87;;;14.70;1.00;;;;;;6177497;23;20831;-85
2022/10/21 07:16:50;;;;;;;6.60;4.63;;;14.80;1.00;;;;;;6193907;23;20427;-85
2022/10/21 07:19:15;;;;;;;7.23;4.27;;;14.80;1.00;;;;;;6190337;23;20776;-85
2022/10/21 07:21:43;;;;;;;8.43;4.73;;;14.80;1.00;;;;;;6190058;23;20427;-85
2022/10/21 07:24:09;;;;;;;9.33;4.73;;;14.80;1.00;;;;;;6191354;23;20175;-85
2022/10/21 07:26:34;;;;;;;6.80;4.50;;;14.80;1.00;;;;;;6193750;23;20388;-84
2022/10/21 07:29:00;;;;;;;7.87;4.50;;;14.80;1.00;;;;;;6191690;23;20379;-85
2022/10/21 07:31:27;;;;;;;11.13;6.10;;;14.80;1.00;;;;;;6190397;23;20168;-85
2022/10/21 07:33:53;;;;;;;10.93;5.33;;;14.80;1.00;;;;;;6190114;23;20393;-85
2022/10/21 07:36:23;;;;;;;13.20;7.63;;;14.80;1.00;;;;;;6191076;23;20385;-85
2022/10/21 07:38:50;;;;;;;7.80;5.80;;;14.80;1.00;;;;;;6193213;23;20397;-85
2022/10/21 07:41:21;;;;;;;11.67;6.60;;;14.80;1.00;;;;;;6190132;23;20387;-85
2022/10/21 07:43:48;;;;;;;8.57;5.43;;;14.80;1.00;;;;;;6193139;23;20404;-85
2022/10/21 07:46:14;;;;;;;6.33;4.67;;;14.90;1.00;;;;;;6194123;23;20497;-84
2022/10/21 07:48:40;;;;;;;6.90;5.00;;;14.90;1.00;;;;;;6193758;23;20479;-85
2022/10/21 07:51:10;;;;;;;13.40;5.03;;;15.00;1.00;;;;;;6189372;23;20408;-85
2022/10/21 07:53:35;;;;;;;8.07;5.53;;;15.00;1.00;;;;;;6190883;23;20180;-85
2022/10/21 07:56:14;;;;;;;8.97;5.20;;;15.00;1.00;;;;;;6200040;23;20374;-86
2022/10/21 07:58:39;;;;;;;10.33;5.70;;;15.10;1.00;;;;;;6197347;23;20141;-85
2022/10/21 08:01:07;;;;;;;11.70;4.87;;;15.10;1.00;;;;;;6182245;23;20439;-86
2022/10/21 08:03:32;;;;;;;6.93;4.50;;;15.10;1.00;;;;;;6182780;23;20229;-85
2022/10/21 08:05:59;;;;;;;8.00;4.60;;;15.20;1.00;;;;;;6181714;23;20489;-86
2022/10/21 08:08:25;;;;;;;8.10;4.40;;;15.20;1.00;;;;;;6179583;23;20392;-85
2022/10/21 08:10:52;;;;;;;5.97;4.57;;;15.20;1.00;;;;;;6179158;23;20405;-85
2022/10/21 08:13:17;;;;;;;13.00;4.80;;;15.30;1.00;;;;;;6179829;23;20381;-86
2022/10/21 08:15:51;;;;;;;7.93;4.37;;;15.30;1.00;;;;;;6183815;23;20712;-85
2022/10/21 08:18:16;;;;;;;11.10;5.33;;;15.30;1.00;;;;;;6183813;23;20146;-85
2022/10/21 08:20:43;;;;;;;9.17;5.27;;;15.40;1.00;;;;;;6181392;23;20517;-85
2022/10/21 08:23:10;;;;;;;6.80;4.43;;;15.40;1.00;;;;;;6184558;23;20381;-86
2022/10/21 08:25:57;;;;;;;13.20;5.37;;;15.40;1.00;;;;;;6181321;23;20832;-87
2022/10/21 08:28:27;;;;;;;11.50;5.90;;;15.40;1.00;;;;;;6207400;23;20940;-85
2022/10/21 08:31:00;;;;;;;11.00;5.50;;;15.40;1.00;;;;;;6183067;23;20393;-87
2022/10/21 08:33:30;;;;;;;11.60;6.27;;;15.40;1.00;;;;;;6179566;23;20391;-86
2022/10/21 08:36:03;;;;;;;13.77;6.63;;;15.40;1.00;;;;;;6180588;23;20440;-86
2022/10/21 08:38:28;;;;;;;8.83;5.73;;;15.40;1.00;;;;;;6181025;23;20739;-86
2022/10/21 08:40:56;;;;;;;10.40;6.77;;;15.40;1.00;;;;;;6180739;23;20491;-86
2022/10/21 08:43:44;;;;;;;15.00;6.70;;;15.50;1.00;;;;;;6180120;23;20620;-86
2022/10/21 08:46:22;;;;;;;11.40;7.30;;;15.60;1.00;;;;;;6177930;23;21182;-86
2022/10/21 08:49:01;;;;;;;14.10;6.90;;;15.70;1.00;;;;;;6183123;23;20906;-86
2022/10/21 08:51:57;;;;;;;11.27;7.30;;;15.80;1.00;;;;;;6180223;23;20366;-85
2022/10/21 08:54:30;;;;;;;11.00;6.43;;;15.90;1.00;;;;;;6182177;23;20365;-86
2022/10/21 08:56:59;;;;;;;21.20;9.33;;;16.00;1.00;;;;;;6181965;23;20386;-85
2022/10/21 08:59:30;;;;;;;13.13;7.40;;;16.10;1.00;;;;;;6179508;23;20421;-86
2022/10/21 09:02:10;;;;;;;15.73;7.00;;;16.10;1.00;;;;;;6184274;23;20441;-85
2022/10/21 09:05:08;;;;;;;9.13;6.60;;;16.20;1.00;;;;;;6183371;23;20413;-85
2022/10/21 09:08:07;;;;;;;13.13;6.20;;;16.30;1.00;;;;;;6181775;23;20399;-86
2022/10/21 09:11:01;;;;;;;13.10;6.50;;;16.30;1.00;;;;;;6182230;23;20408;-86
2022/10/21 09:13:58;;;;;;;11.47;6.97;;;16.40;1.00;;;;;;6183216;23;20423;-85
2022/10/21 09:16:42;;;;;;;12.10;6.33;;;16.40;1.00;;;;;;6183836;23;20369;-85
2022/10/21 09:19:26;;;;;;;26.80;16.97;;;16.50;1.00;;;;;;6182411;23;20482;-85
2022/10/21 09:22:03;;;;;;;23.17;10.63;;;16.50;1.00;;;;;;6183864;23;20405;-85
2022/10/21 09:24:59;;;;;;;17.93;9.43;;;16.60;1.00;;;;;;6183440;23;20361;-85
2022/10/21 09:27:25;;;;;;;12.57;8.93;;;16.60;1.00;;;;;;6182978;23;20440;-85
2022/10/21 09:29:58;;;;;;;12.00;8.40;;;16.60;1.00;;;;;;6186241;23;20406;-85
2022/10/21 09:32:33;;;;;;;11.23;6.90;;;16.50;1.00;;;;;;6183896;23;20723;-85
2022/10/21 09:35:14;;;;;;;11.40;7.03;;;16.60;1.00;;;;;;6185012;23;20438;-85
2022/10/21 09:38:11;;;;;;;9.80;6.97;;;16.70;1.00;;;;;;6184979;23;20506;-85
2022/10/21 09:40:36;;;;;;;10.87;7.00;;;16.70;1.00;;;;;;6182688;23;20395;-85
2022/10/21 09:43:07;;;;;;;13.83;7.20;;;16.70;1.00;;;;;;6184104;23;20449;-85
2022/10/21 09:45:45;;;;;;;10.10;6.30;;;16.70;1.00;;;;;;6184044;23;20198;-85
2022/10/21 09:48:16;;;;;;;16.70;6.50;;;16.70;1.00;;;;;;6182944;23;20372;-85
2022/10/21 09:50:52;;;;;;;7.73;6.17;;;16.70;1.00;;;;;;6182792;23;20405;-87
2022/10/21 09:53:44;;;;;;;12.97;6.50;;;16.70;1.00;;;;;;6185507;23;20397;-85
2022/10/21 09:56:19;;;;;;;13.30;6.27;;;16.70;1.00;;;;;;6185375;23;20405;-85
2022/10/21 09:59:03;;;;;;;9.80;5.80;;;16.70;1.00;;;;;;6185044;23;20368;-86
2022/10/21 10:01:29;;;;;;;14.93;6.07;;;16.70;1.00;;;;;;6185582;23;20417;-85
2022/10/21 10:04:21;;;;;;;13.40;6.57;;;16.70;1.00;;;;;;6184096;23;20390;-86
2022/10/21 10:06:55;;;;;;;10.47;7.20;;;16.80;1.00;;;;;;6140319;23;20460;-86
2022/10/21 10:09:36;;;;;;;17.03;7.20;;;16.80;1.00;;;;;;6184758;23;20454;-86
2022/10/21 10:12:10;;;;;;;12.53;7.30;;;16.90;1.00;;;;;;6183851;23;20719;-86
2022/10/21 10:14:41;;;;;;;12.93;6.60;;;16.90;1.00;;;;;;6185399;23;20362;-85
2022/10/21 10:17:27;;;;;;;16.40;7.60;;;17.00;1.00;;;;;;6183920;23;20825;-88
2022/10/21 10:20:12;;;;;;;11.47;6.90;;;17.00;1.00;;;;;;6185002;23;20454;-86
2022/10/21 10:22:43;;;;;;;10.20;5.70;;;17.10;1.00;;;;;;6184898;23;20703;-86
2022/10/21 10:25:27;;;;;;;9.27;4.50;;;17.10;1.00;;;;;;6183540;23;20414;-86
2022/10/21 10:28:01;;;;;;;5.70;3.10;;;17.20;1.00;;;;;;6187055;23;20396;-86
2022/10/21 10:30:59;;;;;;;12.13;3.27;;;17.30;1.00;;;;;;6189117;23;20391;-84
2022/10/21 10:33:34;;;;;;;4.47;2.50;;;17.40;1.00;;;;;;6189373;23;20356;-85
2022/10/21 10:49:59;;;;;;;1.97;1.50;;;18.20;99.90;;;;;;6174089;23;20396;-86
2022/10/21 10:53:23;;;;;;;;;;;;;;;;;;;;;
2022/10/21 11:00:18;;;;;;;3.93;1.20;;;19.10;99.90;;;;;;6084115;23;20485;-85
2022/10/21 11:03:06;;;;;;;3.07;1.43;;;19.50;99.90;;;;;;6097370;23;20396;-86
2022/10/21 11:05:50;;;;;;;3.50;1.60;;;19.90;99.90;;;;;;6192630;23;20485;-85
2022/10/21 11:08:26;;;;;;;5.13;1.40;;;20.30;99.90;;;;;;6190906;23;20382;-87
2022/10/21 11:11:01;;;;;;;1.70;1.10;;;20.60;99.90;;;;;;6192483;23;20461;-86
2022/10/21 11:13:32;;;;;;;3.00;1.30;;;20.90;1.00;;;;;;6193371;23;20363;-87
2022/10/21 11:16:14;;;;;;;5.73;1.40;;;21.40;7.90;;;;;;6192577;23;20364;-84
2022/10/21 11:19:02;;;;;;;4.00;1.37;;;21.80;99.90;;;;;;6192033;23;20370;-85
2022/10/21 11:21:45;;;;;;;1.60;1.20;;;22.30;1.00;;;;;;6194968;23;20388;-86
2022/10/21 11:24:49;;;;;;;8.67;5.57;;;23.00;1.00;;;;;;6190770;23;20384;-85
2022/10/21 11:27:43;;;;;;;3.53;1.30;;;23.60;99.90;;;;;;6193076;23;20380;-85
2022/10/21 11:30:37;;;;;;;3.23;1.07;;;24.80;1.00;;;;;;6196281;23;20420;-84
2022/10/21 11:33:16;;;;;;;2.00;1.20;;;26.00;1.00;;;;;;6161833;23;20446;-84
2022/10/21 11:36:12;;;;;;;1.90;1.13;;;26.50;99.90;;;;;;6188158;23;20373;-84
2022/10/21 11:38:52;;;;;;;3.80;1.00;;;28.00;99.90;;;;;;6185311;23;20959;-85
2022/10/21 11:41:33;;;;;;;2.13;0.80;;;29.30;99.90;;;;;;6184726;23;20389;-85
2022/10/21 11:44:18;;;;;;;1.50;0.97;;;30.10;99.90;;;;;;6185717;23;20401;-85
2022/10/21 11:47:05;;;;;;;1.90;0.83;;;31.10;99.90;;;;;;6185269;23;20797;-85
2022/10/21 11:49:34;;;;;;;3.60;0.73;;;31.70;99.90;;;;;;6182690;23;20406;-85
2022/10/21 11:52:56;;;;;;;2.70;1.00;;;32.30;99.90;;;;;;6182457;23;20468;-86
2022/10/21 11:55:39;;;;;;;1.13;0.70;;;32.80;99.90;;;;;;6069570;23;20387;-85
2022/10/21 11:58:35;;;;;;;3.50;0.80;;;32.90;99.90;;;;;;6068706;23;20431;-86
2022/10/21 12:01:18;;;;;;;4.70;0.87;;;33.10;99.90;;;;;;6169769;23;20409;-85
2022/10/21 12:04:07;;;;;;;1.20;0.63;;;33.50;99.90;;;;;;6182912;23;20720;-84
2022/10/21 12:06:45;;;;;;;2.03;0.80;;;33.90;99.90;;;;;;6189897;23;20390;-85
2022/10/21 12:09:39;;;;;;;3.17;0.63;;;34.00;99.90;;;;;;6183647;23;20397;-86
2022/10/21 12:12:33;;;;;;;1.97;0.70;;;34.00;99.90;;;;;;6169899;23;20635;-86
2022/10/21 12:15:10;;;;;;;1.23;0.70;;;34.00;99.90;;;;;;6182019;23;20409;-86
2022/10/21 12:17:38;;;;;;;1.90;0.60;;;34.00;99.90;;;;;;6182784;23;20362;-85
2022/10/21 12:20:21;;;;;;;1.30;0.73;;;33.20;99.90;;;;;;6183157;23;20401;-87
2022/10/21 12:22:48;;;;;;;1.50;0.83;;;31.70;99.90;;;;;;6184013;23;20362;-86
2022/10/21 12:25:27;;;;;;;1.13;0.53;;;30.30;99.90;;;;;;6184835;23;20378;-86
2022/10/21 12:28:56;;;;;;;;;;;;;;;;;;;;;
2022/10/21 15:32:19;;;;;;;;;;;;;;;;;;;;;
2022/10/21 15:35:34;;;;;;;1.43;0.70;;;24.40;99.90;;;;;;6270269;22;20214;-82
2022/10/21 15:38:12;;;;;;;;;;;;;;;;;;;;;
2022/10/21 15:41:03;;;;;;;1.30;0.90;;;23.70;99.90;;;;;;6261011;22;20465;-85
2022/10/21 15:50:45;;;;;;;;;;;;;;;;;;;;;
2022/10/21 15:57:16;;;;;;;;;;;;;;;;;;;;;
2022/10/21 15:59:51;;;;;;;2.63;0.97;;;22.40;99.90;;;;;;6255495;22;20457;-85
2022/10/21 16:15:30;;;;;;;;;;;;;;;;;;;;;
2022/10/21 16:27:38;;;;;;;1.17;0.77;;;21.10;99.90;;;;;;6228406;23;20415;-87
2022/10/21 16:31:07;;;;;;;;;;;;;;;;;;;;;
2022/10/21 16:40:25;;;;;;;2.73;2.53;;;20.60;99.90;;;;;;6251197;22;20946;-86
2022/10/21 16:46:31;;;;;;;;;;;;;;;;;;;;;
2022/10/21 16:49:31;;;;;;;5.73;2.87;;;20.50;99.90;;;;;;6241458;22;20476;-86
2022/10/21 16:52:36;;;;;;;;;;;;;;;;;;;;;
2022/10/21 16:55:47;;;;;;;3.43;2.57;;;20.30;1.00;;;;;;6232913;23;20481;-88
2022/10/21 17:02:42;;;;;;;6.10;2.60;;;20.10;1.00;;;;;;6230171;23;20468;-86
2022/10/21 17:08:47;;;;;;;13.87;9.60;;;19.90;1.00;;;;;;6231388;23;20384;-86
2022/10/21 17:21:28;;;;;;;4.63;2.73;;;19.50;1.00;;;;;;6222039;23;20402;-85
2022/10/21 17:25:05;;;;;;;;;;;;;;;;;;;;;
2022/10/21 20:39:35;;;;;;;4.47;3.10;;;16.20;1.00;;;;;;6092060;22;20659;-85
2022/10/21 21:26:40;;;;;;;;;;;;;;;;;;;;;
2022/10/21 22:06:12;;;;;;;;;;;;;;;;;;;;;
2022/10/21 22:16:36;;;;;;;;;;;;;;;;;;;;;
2022/10/21 23:14:08;;;;;;;5.40;3.27;;;15.00;1.00;;;;;;6257748;22;20384;-84
2022/10/21 23:17:15;;;;;;;;;;;;;;;;;;;;;
2022/10/21 23:43:32;;;;;;;6.00;2.80;;;14.90;1.00;;;;;;6262201;22;20409;-85
2022/10/21 23:46:30;;;;;;;;;;;;;;;;;;;;;
2022/10/21 23:55:44;;;;;;;;;;;;;;;;;;;;;
2022/10/21 23:59:00;;;;;;;;;;;;;;;;;;;;;
